createdAt,value
2017-10-01T00:00:28.558Z,10.01
2017-10-01T00:01:28.652Z,10.00
2017-10-01T00:02:28.536Z,9.91
2017-10-01T00:03:28.578Z,9.89
2017-10-01T00:04:28.481Z,9.81
2017-10-01T00:05:28.580Z,10.09
2017-10-01T00:06:28.454Z,9.89
2017-10-01T00:07:28.497Z,9.94
2017-10-01T00:08:28.406Z,9.96
2017-10-01T00:09:28.509Z,9.99
2017-10-01T00:10:28.360Z,9.93
2017-10-01T00:11:28.466Z,9.97
2017-10-01T00:12:28.332Z,10.04
2017-10-01T00:13:28.430Z,9.96
2017-10-01T00:14:28.298Z,9.86
2017-10-01T00:15:28.352Z,9.82
2017-10-01T00:16:28.248Z,9.82
2017-10-01T00:17:28.241Z,9.78
2017-10-01T00:18:28.265Z,9.86
2017-10-01T00:19:28.191Z,9.85
2017-10-01T00:20:28.277Z,9.94
2017-10-01T00:21:28.163Z,9.88
2017-10-01T00:22:28.184Z,9.93
2017-10-01T00:23:28.121Z,9.83
2017-10-01T00:24:28.200Z,9.94
2017-10-01T00:25:28.073Z,9.93
2017-10-01T00:26:28.129Z,9.83
2017-10-01T00:27:28.031Z,9.91
2017-10-01T00:28:28.151Z,9.82
2017-10-01T00:29:27.990Z,9.79
2017-10-01T00:30:28.051Z,9.86
2017-10-01T00:31:27.961Z,10.00
2017-10-01T00:32:28.052Z,9.91
2017-10-01T00:33:27.916Z,9.85
2017-10-01T00:34:27.970Z,9.82
2017-10-01T00:35:27.869Z,9.83
2017-10-01T00:36:27.995Z,9.86
2017-10-01T00:37:27.826Z,9.81
2017-10-01T00:38:27.905Z,9.73
2017-10-01T00:39:27.788Z,9.73
2017-10-01T00:40:27.811Z,9.79
2017-10-01T00:41:27.762Z,9.81
2017-10-01T00:42:27.827Z,9.71
2017-10-01T00:43:27.711Z,9.81
2017-10-01T00:44:27.757Z,9.82
2017-10-01T00:45:27.677Z,9.75
2017-10-01T00:46:27.751Z,9.91
2017-10-01T00:47:27.622Z,10.28
2017-10-01T00:48:27.664Z,10.36
2017-10-01T00:49:27.600Z,10.46
2017-10-01T00:50:27.675Z,10.34
2017-10-01T00:51:27.557Z,10.44
2017-10-01T00:52:27.592Z,10.42
2017-10-01T00:53:27.514Z,10.32
2017-10-01T00:54:27.610Z,10.26
2017-10-01T00:55:27.466Z,10.10
2017-10-01T00:56:27.521Z,10.01
2017-10-01T00:57:27.444Z,10.03
2017-10-01T00:58:27.529Z,9.96
2017-10-01T00:59:27.401Z,9.97
2017-10-01T01:00:27.456Z,9.85
2017-10-01T01:01:27.361Z,9.83
2017-10-01T01:02:27.460Z,9.88
2017-10-01T01:03:27.326Z,9.83
2017-10-01T01:04:27.367Z,9.89
2017-10-01T01:05:27.278Z,9.83
2017-10-01T01:06:27.387Z,9.83
2017-10-01T01:07:27.242Z,9.88
2017-10-01T01:08:27.300Z,9.97
2017-10-01T01:09:27.208Z,9.85
2017-10-01T01:10:27.309Z,9.78
2017-10-01T01:11:27.181Z,9.75
2017-10-01T01:12:27.221Z,9.71
2017-10-01T01:13:27.122Z,10.12
2017-10-01T01:14:27.233Z,10.15
2017-10-01T01:15:27.089Z,10.30
2017-10-01T01:16:27.148Z,10.24
2017-10-01T01:17:27.056Z,10.43
2017-10-01T01:18:27.040Z,10.44
2017-10-01T01:19:27.073Z,10.51
2017-10-01T01:20:27.000Z,10.53
2017-10-01T01:21:27.081Z,10.44
2017-10-01T01:22:26.950Z,10.17
2017-10-01T01:23:26.996Z,9.93
2017-10-01T01:24:26.918Z,10.01
2017-10-01T01:25:27.019Z,10.30
2017-10-01T01:26:26.884Z,10.24
2017-10-01T01:28:26.845Z,10.00
2017-10-01T01:29:26.937Z,9.89
2017-10-01T01:30:26.812Z,10.03
2017-10-01T01:31:26.854Z,9.82
2017-10-01T01:32:26.759Z,9.76
2017-10-01T01:33:26.865Z,9.71
2017-10-01T01:34:26.721Z,9.67
2017-10-01T01:35:26.775Z,9.60
2017-10-01T01:36:26.678Z,9.58
2017-10-01T01:37:26.796Z,9.64
2017-10-01T01:38:26.655Z,9.63
2017-10-01T01:39:26.702Z,9.60
2017-10-01T01:40:26.614Z,9.56
2017-10-01T01:41:26.610Z,9.48
2017-10-01T01:42:26.576Z,9.57
2017-10-01T01:43:26.628Z,9.52
2017-10-01T01:44:26.519Z,9.49
2017-10-01T01:45:26.547Z,9.46
2017-10-01T01:46:26.472Z,9.38
2017-10-01T01:48:26.436Z,9.31
2017-10-01T01:49:26.465Z,9.30
2017-10-01T01:50:26.403Z,9.20
2017-10-01T01:51:26.475Z,9.23
2017-10-01T01:52:26.362Z,9.23
2017-10-01T01:53:26.395Z,9.25
2017-10-01T01:54:26.310Z,9.21
2017-10-01T01:55:26.409Z,9.27
2017-10-01T01:56:26.267Z,9.21
2017-10-01T01:57:26.321Z,9.27
2017-10-01T01:58:26.230Z,9.34
2017-10-01T01:59:26.337Z,9.23
2017-10-01T02:00:26.205Z,9.28
2017-10-01T02:01:26.250Z,9.20
2017-10-01T02:02:26.146Z,9.24
2017-10-01T02:03:26.272Z,9.34
2017-10-01T02:04:26.104Z,9.23
2017-10-01T02:05:26.184Z,9.16
2017-10-01T02:06:26.074Z,9.34
2017-10-01T02:07:26.096Z,9.34
2017-10-01T02:08:26.025Z,9.38
2017-10-01T02:09:26.092Z,9.23
2017-10-01T02:10:25.986Z,9.38
2017-10-01T02:11:26.668Z,9.40
2017-10-01T02:12:25.935Z,9.31
2017-10-01T02:13:26.030Z,9.27
2017-10-01T02:14:25.898Z,9.28
2017-10-01T02:15:25.953Z,9.21
2017-10-01T02:16:25.862Z,9.34
2017-10-01T02:17:25.956Z,9.35
2017-10-01T02:18:25.813Z,9.25
2017-10-01T02:19:25.817Z,9.23
2017-10-01T02:20:25.869Z,9.34
2017-10-01T02:21:25.760Z,9.21
2017-10-01T02:22:25.792Z,9.42
2017-10-01T02:23:25.745Z,9.40
2017-10-01T02:24:25.803Z,9.27
2017-10-01T02:25:25.677Z,9.31
2017-10-01T02:26:25.717Z,9.38
2017-10-01T02:27:25.631Z,9.34
2017-10-01T02:28:25.731Z,9.30
2017-10-01T02:29:25.589Z,9.23
2017-10-01T02:30:25.637Z,9.23
2017-10-01T02:31:25.544Z,9.53
2017-10-01T02:32:25.655Z,9.52
2017-10-01T02:33:25.518Z,9.48
2017-10-01T02:34:26.172Z,9.40
2017-10-01T02:35:25.481Z,9.52
2017-10-01T02:36:25.584Z,9.42
2017-10-01T02:37:25.457Z,9.56
2017-10-01T02:38:25.489Z,9.52
2017-10-01T02:39:25.397Z,9.57
2017-10-01T02:40:25.402Z,9.52
2017-10-01T02:41:25.360Z,9.38
2017-10-01T02:42:25.422Z,9.32
2017-10-01T02:43:25.317Z,9.38
2017-10-01T02:44:25.358Z,9.24
2017-10-01T02:45:25.270Z,9.31
2017-10-01T02:46:25.342Z,9.32
2017-10-01T02:47:25.232Z,9.40
2017-10-01T02:48:25.252Z,9.34
2017-10-01T02:49:25.184Z,9.40
2017-10-01T02:50:25.278Z,9.35
2017-10-01T02:51:25.139Z,9.40
2017-10-01T02:52:25.188Z,9.34
2017-10-01T02:53:25.102Z,9.40
2017-10-01T02:54:25.196Z,9.34
2017-10-01T02:55:25.059Z,9.32
2017-10-01T02:56:25.123Z,9.39
2017-10-01T02:57:25.022Z,9.49
2017-10-01T02:58:25.021Z,9.48
2017-10-01T02:59:24.977Z,9.48
2017-10-01T03:00:25.044Z,9.48
2017-10-01T03:01:24.920Z,9.48
2017-10-01T03:02:24.948Z,9.60
2017-10-01T03:03:24.889Z,9.50
2017-10-01T03:04:24.962Z,9.57
2017-10-01T03:05:24.854Z,9.63
2017-10-01T03:06:24.879Z,9.60
2017-10-01T03:07:24.794Z,9.52
2017-10-01T03:08:24.889Z,9.60
2017-10-01T03:09:24.757Z,9.63
2017-10-01T03:10:24.806Z,9.73
2017-10-01T03:11:24.724Z,9.66
2017-10-01T03:12:24.809Z,9.61
2017-10-01T03:13:24.674Z,9.75
2017-10-01T03:14:24.729Z,9.85
2017-10-01T03:15:24.642Z,9.88
2017-10-01T03:16:24.763Z,9.97
2017-10-01T03:17:24.624Z,9.85
2017-10-01T03:18:24.654Z,9.82
2017-10-01T03:19:24.552Z,9.71
2017-10-01T03:20:24.538Z,9.73
2017-10-01T03:21:24.574Z,9.82
2017-10-01T03:22:24.494Z,9.83
2017-10-01T03:23:24.598Z,9.79
2017-10-01T03:24:24.467Z,9.79
2017-10-01T03:25:24.501Z,9.97
2017-10-01T03:26:24.411Z,9.86
2017-10-01T03:27:24.517Z,9.86
2017-10-01T03:28:24.385Z,9.79
2017-10-01T03:29:24.424Z,9.83
2017-10-01T03:30:24.327Z,9.86
2017-10-01T03:31:24.339Z,9.85
2017-10-01T03:32:24.303Z,9.75
2017-10-01T03:33:24.365Z,9.81
2017-10-01T03:34:24.250Z,9.82
2017-10-01T03:35:24.349Z,9.73
2017-10-01T03:36:24.208Z,9.78
2017-10-01T03:37:24.742Z,9.83
2017-10-01T03:38:24.283Z,9.75
2017-10-01T03:39:24.159Z,9.82
2017-10-01T03:40:24.197Z,9.88
2017-10-01T03:41:24.103Z,9.93
2017-10-01T03:42:24.220Z,9.83
2017-10-01T03:43:24.096Z,9.96
2017-10-01T03:44:24.126Z,10.24
2017-10-01T03:45:24.024Z,10.10
2017-10-01T03:46:24.042Z,10.04
2017-10-01T03:47:24.001Z,9.96
2017-10-01T03:48:24.059Z,9.96
2017-10-01T03:49:23.965Z,10.33
2017-10-01T03:50:24.077Z,10.58
2017-10-01T03:51:23.920Z,10.34
2017-10-01T03:52:23.977Z,10.18
2017-10-01T03:53:23.877Z,10.37
2017-10-01T03:54:23.908Z,10.62
2017-10-01T03:55:23.829Z,10.56
2017-10-01T03:56:23.903Z,10.89
2017-10-01T03:57:23.806Z,10.78
2017-10-01T03:58:23.817Z,10.78
2017-10-01T03:59:23.764Z,10.66
2017-10-01T04:00:23.840Z,10.81
2017-10-01T04:01:23.719Z,10.71
2017-10-01T04:02:23.746Z,10.94
2017-10-01T04:03:23.679Z,10.95
2017-10-01T04:05:23.644Z,11.06
2017-10-01T04:06:23.671Z,10.92
2017-10-01T04:07:23.613Z,11.09
2017-10-01T04:08:23.695Z,11.07
2017-10-01T04:09:23.566Z,11.14
2017-10-01T04:10:23.632Z,11.06
2017-10-01T04:11:23.530Z,11.02
2017-10-01T04:12:23.613Z,11.06
2017-10-01T04:13:23.494Z,11.24
2017-10-01T04:14:23.521Z,10.99
2017-10-01T04:15:23.454Z,10.80
2017-10-01T04:16:23.560Z,10.78
2017-10-01T04:17:23.413Z,10.63
2017-10-01T04:18:23.458Z,10.58
2017-10-01T04:19:23.375Z,10.44
2017-10-01T04:20:23.468Z,10.44
2017-10-01T04:21:23.340Z,10.39
2017-10-01T04:22:23.383Z,10.44
2017-10-01T04:23:23.306Z,10.28
2017-10-01T04:24:23.396Z,10.46
2017-10-01T04:25:23.264Z,10.42
2017-10-01T04:26:23.328Z,10.44
2017-10-01T04:27:23.233Z,10.51
2017-10-01T04:28:23.322Z,10.36
2017-10-01T04:29:23.178Z,10.37
2017-10-01T04:30:23.231Z,10.26
2017-10-01T04:31:23.152Z,10.26
2017-10-01T04:32:23.246Z,10.30
2017-10-01T04:33:23.099Z,10.32
2017-10-01T04:34:23.154Z,10.34
2017-10-01T04:35:23.093Z,10.34
2017-10-01T04:36:23.169Z,10.25
2017-10-01T04:37:23.046Z,10.33
2017-10-01T04:38:23.091Z,10.19
2017-10-01T04:39:22.990Z,10.25
2017-10-01T04:40:23.097Z,10.32
2017-10-01T04:41:22.986Z,10.28
2017-10-01T04:42:23.010Z,10.34
2017-10-01T04:43:22.918Z,10.21
2017-10-01T04:44:22.921Z,10.26
2017-10-01T04:45:22.888Z,10.22
2017-10-01T04:46:22.960Z,10.32
2017-10-01T04:47:22.834Z,10.37
2017-10-01T04:48:22.842Z,10.39
2017-10-01T04:49:22.813Z,10.39
2017-10-01T04:50:22.864Z,10.37
2017-10-01T04:51:22.758Z,10.66
2017-10-01T04:52:22.796Z,10.70
2017-10-01T04:53:22.719Z,10.60
2017-10-01T04:54:22.791Z,10.56
2017-10-01T04:55:22.674Z,10.43
2017-10-01T04:56:22.701Z,10.47
2017-10-01T04:57:22.639Z,10.59
2017-10-01T04:58:22.719Z,10.66
2017-10-01T04:59:22.599Z,10.62
2017-10-01T05:00:22.625Z,10.58
2017-10-01T05:01:22.559Z,10.51
2017-10-01T05:02:22.649Z,10.52
2017-10-01T05:03:22.522Z,10.44
2017-10-01T05:04:22.556Z,10.46
2017-10-01T05:05:22.480Z,10.51
2017-10-01T05:06:22.566Z,10.40
2017-10-01T05:07:22.446Z,10.43
2017-10-01T05:08:22.480Z,10.37
2017-10-01T05:09:22.452Z,10.36
2017-10-01T05:10:22.492Z,10.28
2017-10-01T05:11:22.455Z,10.44
2017-10-01T05:12:22.414Z,10.66
2017-10-01T05:13:22.330Z,10.58
2017-10-01T05:14:22.435Z,10.52
2017-10-01T05:15:22.278Z,10.43
2017-10-01T05:16:22.341Z,10.55
2017-10-01T05:17:22.251Z,10.47
2017-10-01T05:18:22.351Z,10.53
2017-10-01T05:19:22.206Z,10.43
2017-10-01T05:20:22.268Z,10.36
2017-10-01T05:21:22.164Z,10.43
2017-10-01T05:22:22.146Z,10.37
2017-10-01T05:23:22.185Z,10.42
2017-10-01T05:24:22.117Z,10.39
2017-10-01T05:25:22.198Z,10.46
2017-10-01T05:26:22.072Z,10.53
2017-10-01T05:27:22.112Z,10.37
2017-10-01T05:28:22.025Z,10.43
2017-10-01T05:29:22.126Z,10.43
2017-10-01T05:30:21.988Z,10.43
2017-10-01T05:31:22.039Z,10.46
2017-10-01T05:32:21.951Z,10.60
2017-10-01T05:33:22.051Z,10.60
2017-10-01T05:34:21.919Z,10.44
2017-10-01T05:35:21.960Z,10.52
2017-10-01T05:36:21.878Z,10.52
2017-10-01T05:37:21.973Z,10.74
2017-10-01T05:38:21.846Z,10.77
2017-10-01T05:39:21.889Z,10.60
2017-10-01T05:40:21.800Z,10.76
2017-10-01T05:41:21.898Z,10.63
2017-10-01T05:42:21.761Z,10.58
2017-10-01T05:43:21.812Z,10.58
2017-10-01T05:44:21.713Z,10.70
2017-10-01T05:45:21.829Z,10.62
2017-10-01T05:46:21.692Z,10.59
2017-10-01T05:47:21.740Z,10.73
2017-10-01T05:48:21.647Z,10.68
2017-10-01T05:49:21.655Z,10.58
2017-10-01T05:50:21.622Z,10.74
2017-10-01T05:51:21.661Z,10.63
2017-10-01T05:52:21.573Z,10.71
2017-10-01T05:53:21.575Z,10.66
2017-10-01T05:54:21.525Z,10.65
2017-10-01T05:55:21.597Z,10.63
2017-10-01T05:56:21.498Z,10.63
2017-10-01T05:57:21.505Z,10.60
2017-10-01T05:58:21.461Z,10.59
2017-10-01T05:59:21.513Z,10.58
2017-10-01T06:00:21.417Z,10.44
2017-10-01T06:01:21.444Z,10.70
2017-10-01T06:02:21.375Z,10.71
2017-10-01T06:03:21.444Z,10.62
2017-10-01T06:04:21.341Z,10.71
2017-10-01T06:05:21.367Z,10.62
2017-10-01T06:06:21.302Z,10.70
2017-10-01T06:07:21.380Z,10.63
2017-10-01T06:08:21.261Z,10.63
2017-10-01T06:09:21.290Z,10.65
2017-10-01T06:10:21.226Z,10.60
2017-10-01T06:11:21.302Z,10.71
2017-10-01T06:12:21.185Z,10.76
2017-10-01T06:13:21.218Z,10.60
2017-10-01T06:14:21.153Z,10.58
2017-10-01T06:15:21.226Z,10.59
2017-10-01T06:16:21.109Z,10.65
2017-10-01T06:17:21.144Z,10.66
2017-10-01T06:18:21.074Z,10.70
2017-10-01T06:19:21.154Z,10.52
2017-10-01T06:20:21.035Z,10.46
2017-10-01T06:21:21.063Z,10.47
2017-10-01T06:22:20.990Z,10.52
2017-10-01T06:23:20.990Z,10.65
2017-10-01T06:24:21.120Z,10.71
2017-10-01T06:25:20.947Z,10.83
2017-10-01T06:26:20.996Z,10.88
2017-10-01T06:27:20.900Z,10.88
2017-10-01T06:28:20.909Z,10.78
2017-10-01T06:29:20.844Z,10.71
2017-10-01T06:30:20.928Z,10.80
2017-10-01T06:31:20.814Z,10.71
2017-10-01T06:32:20.836Z,10.66
2017-10-01T06:33:20.783Z,10.70
2017-10-01T06:34:20.852Z,10.62
2017-10-01T06:35:20.731Z,10.81
2017-10-01T06:36:20.761Z,10.88
2017-10-01T06:37:20.693Z,10.86
2017-10-01T06:38:20.791Z,10.76
2017-10-01T06:39:20.657Z,10.91
2017-10-01T06:40:20.690Z,10.86
2017-10-01T06:41:20.626Z,10.80
2017-10-01T06:42:20.707Z,10.83
2017-10-01T06:43:20.563Z,10.88
2017-10-01T06:44:20.622Z,10.92
2017-10-01T06:45:20.533Z,10.84
2017-10-01T06:46:20.638Z,10.78
2017-10-01T06:47:20.495Z,10.88
2017-10-01T06:48:21.334Z,10.78
2017-10-01T06:49:21.276Z,10.74
2017-10-01T06:50:20.560Z,10.81
2017-10-01T06:51:20.411Z,10.77
2017-10-01T06:52:20.473Z,10.81
2017-10-01T06:53:20.369Z,10.98
2017-10-01T06:54:20.401Z,10.84
2017-10-01T06:55:20.336Z,10.81
2017-10-01T06:56:20.398Z,10.77
2017-10-01T06:57:20.278Z,10.84
2017-10-01T06:58:20.310Z,10.83
2017-10-01T06:59:20.244Z,10.80
2017-10-01T07:00:20.319Z,10.74
2017-10-01T07:01:20.200Z,10.77
2017-10-01T07:02:20.244Z,10.88
2017-10-01T07:03:20.161Z,10.88
2017-10-01T07:04:20.260Z,10.81
2017-10-01T07:05:20.122Z,10.80
2017-10-01T07:06:20.221Z,10.80
2017-10-01T07:07:20.087Z,10.80
2017-10-01T07:08:20.187Z,10.65
2017-10-01T07:09:20.043Z,10.60
2017-10-01T07:10:20.083Z,10.62
2017-10-01T07:11:19.999Z,10.74
2017-10-01T07:12:20.726Z,10.76
2017-10-01T07:13:19.973Z,10.63
2017-10-01T07:14:20.017Z,10.63
2017-10-01T07:15:19.932Z,10.71
2017-10-01T07:16:19.912Z,10.73
2017-10-01T07:17:19.883Z,10.89
2017-10-01T07:18:19.945Z,10.84
2017-10-01T07:19:19.845Z,10.89
2017-10-01T07:20:19.852Z,10.95
2017-10-01T07:21:19.813Z,11.07
2017-10-01T07:22:19.869Z,11.14
2017-10-01T07:23:19.771Z,11.20
2017-10-01T07:24:19.749Z,11.16
2017-10-01T07:25:19.783Z,11.28
2017-10-01T07:26:19.709Z,11.24
2017-10-01T07:27:19.806Z,11.53
2017-10-01T07:28:19.673Z,11.64
2017-10-01T07:29:19.719Z,11.82
2017-10-01T07:30:19.625Z,11.89
2017-10-01T07:31:19.731Z,11.97
2017-10-01T07:32:19.593Z,12.06
2017-10-01T07:34:19.561Z,12.46
2017-10-01T07:35:19.657Z,12.59
2017-10-01T07:36:19.511Z,12.44
2017-10-01T07:37:19.502Z,12.44
2017-10-01T07:38:19.476Z,12.67
2017-10-01T07:39:19.483Z,12.79
2017-10-01T07:40:19.440Z,12.59
2017-10-01T07:41:19.490Z,12.49
2017-10-01T07:42:19.399Z,12.71
2017-10-01T07:43:19.518Z,13.15
2017-10-01T07:44:19.360Z,14.56
2017-10-01T07:45:19.425Z,15.42
2017-10-01T07:46:19.327Z,16.38
2017-10-01T07:47:19.336Z,17.79
2017-10-01T07:48:19.291Z,18.47
2017-10-01T07:49:19.353Z,18.62
2017-10-01T07:50:19.254Z,18.97
2017-10-01T07:51:19.363Z,18.59
2017-10-01T07:52:19.225Z,20.06
2017-10-01T07:53:19.227Z,20.71
2017-10-01T07:54:19.203Z,20.56
2017-10-01T07:55:19.283Z,19.51
2017-10-01T07:56:19.171Z,19.46
2017-10-01T07:57:19.172Z,19.70
2017-10-01T07:58:19.142Z,19.94
2017-10-01T07:59:19.218Z,20.58
2017-10-01T08:00:19.114Z,20.18
2017-10-01T08:01:19.127Z,20.03
2017-10-01T08:02:19.095Z,18.84
2017-10-01T08:03:19.152Z,19.43
2017-10-01T08:04:19.073Z,19.36
2017-10-01T08:05:19.160Z,20.00
2017-10-01T08:06:19.023Z,20.58
2017-10-01T08:07:19.067Z,19.94
2017-10-01T08:08:18.996Z,20.51
2017-10-01T08:09:19.105Z,19.80
2017-10-01T08:10:18.966Z,21.26
2017-10-01T08:11:18.993Z,21.38
2017-10-01T08:12:18.952Z,21.34
2017-10-01T08:13:19.011Z,22.04
2017-10-01T08:14:18.921Z,21.39
2017-10-01T08:15:19.022Z,21.99
2017-10-01T08:16:18.892Z,22.20
2017-10-01T08:17:18.939Z,21.81
2017-10-01T08:18:18.870Z,22.87
2017-10-01T08:19:19.052Z,24.07
2017-10-01T08:20:18.835Z,24.13
2017-10-01T08:21:19.165Z,24.73
2017-10-01T08:22:18.828Z,21.94
2017-10-01T08:23:19.293Z,21.99
2017-10-01T08:24:18.781Z,22.65
2017-10-01T08:26:18.770Z,18.76
2017-10-01T08:28:18.737Z,17.07
2017-10-01T08:29:18.819Z,17.22
2017-10-01T08:30:18.701Z,16.31
2017-10-01T08:31:18.809Z,15.97
2017-10-01T08:32:18.663Z,15.75
2017-10-01T08:34:18.622Z,15.75
2017-10-01T08:35:18.660Z,15.61
2017-10-01T08:36:18.597Z,15.78
2017-10-01T08:37:18.686Z,15.56
2017-10-01T08:38:18.552Z,15.60
2017-10-01T08:39:18.587Z,15.72
2017-10-01T08:40:18.527Z,15.51
2017-10-01T08:41:18.611Z,15.42
2017-10-01T08:42:18.477Z,15.38
2017-10-01T08:43:18.506Z,15.56
2017-10-01T08:44:18.444Z,15.28
2017-10-01T08:45:18.533Z,15.35
2017-10-01T08:46:18.405Z,15.52
2017-10-01T08:47:18.433Z,15.54
2017-10-01T08:48:18.367Z,15.60
2017-10-01T08:49:18.459Z,15.57
2017-10-01T08:50:18.333Z,15.48
2017-10-01T08:51:18.372Z,15.64
2017-10-01T08:52:18.292Z,15.75
2017-10-01T08:53:18.383Z,16.00
2017-10-01T08:54:18.259Z,15.94
2017-10-01T08:55:18.294Z,15.82
2017-10-01T08:56:18.223Z,16.01
2017-10-01T08:57:18.306Z,16.07
2017-10-01T08:58:18.192Z,16.38
2017-10-01T08:59:18.221Z,16.25
2017-10-01T09:00:18.154Z,16.26
2017-10-01T09:01:18.227Z,16.04
2017-10-01T09:02:18.132Z,15.63
2017-10-01T09:03:18.144Z,15.75
2017-10-01T09:04:18.079Z,15.86
2017-10-01T09:05:18.172Z,16.09
2017-10-01T09:06:18.055Z,16.23
2017-10-01T09:07:18.073Z,16.20
2017-10-01T09:08:18.016Z,16.27
2017-10-01T09:09:18.084Z,16.18
2017-10-01T09:10:17.978Z,16.41
2017-10-01T09:11:17.995Z,16.33
2017-10-01T09:12:17.958Z,16.27
2017-10-01T09:13:18.014Z,16.45
2017-10-01T09:14:17.905Z,16.41
2017-10-01T09:15:18.028Z,16.34
2017-10-01T09:16:17.879Z,16.20
2017-10-01T09:17:17.942Z,16.14
2017-10-01T09:18:17.843Z,16.07
2017-10-01T09:19:17.850Z,16.18
2017-10-01T09:20:17.815Z,16.31
2017-10-01T09:21:17.865Z,16.50
2017-10-01T09:22:17.764Z,16.70
2017-10-01T09:23:17.778Z,16.48
2017-10-01T09:24:17.727Z,16.74
2017-10-01T09:25:17.790Z,16.88
2017-10-01T09:26:17.699Z,16.89
2017-10-01T09:27:17.674Z,16.52
2017-10-01T09:28:17.707Z,16.49
2017-10-01T09:29:17.643Z,16.63
2017-10-01T09:30:17.725Z,16.75
2017-10-01T09:31:17.607Z,16.85
2017-10-01T09:32:17.641Z,17.11
2017-10-01T09:33:17.569Z,17.38
2017-10-01T09:34:17.653Z,17.29
2017-10-01T09:35:17.528Z,17.26
2017-10-01T09:36:17.575Z,17.28
2017-10-01T09:37:17.491Z,17.36
2017-10-01T09:38:17.587Z,16.95
2017-10-01T09:39:17.459Z,17.11
2017-10-01T09:40:17.493Z,16.80
2017-10-01T09:41:17.432Z,16.78
2017-10-01T09:42:17.513Z,16.88
2017-10-01T09:43:17.476Z,16.74
2017-10-01T09:44:17.418Z,17.04
2017-10-01T09:45:17.355Z,16.81
2017-10-01T09:46:17.433Z,16.83
2017-10-01T09:47:17.319Z,17.13
2017-10-01T09:48:17.351Z,17.11
2017-10-01T09:49:17.295Z,16.93
2017-10-01T09:50:17.354Z,17.04
2017-10-01T09:51:17.259Z,17.41
2017-10-01T09:53:17.208Z,17.79
2017-10-01T09:54:17.286Z,17.43
2017-10-01T09:55:17.188Z,17.00
2017-10-01T09:56:17.159Z,17.22
2017-10-01T09:57:17.205Z,17.44
2017-10-01T09:58:17.151Z,17.66
2017-10-01T09:59:17.217Z,17.87
2017-10-01T10:00:17.092Z,17.97
2017-10-01T10:01:17.140Z,17.74
2017-10-01T10:02:17.057Z,18.06
2017-10-01T10:03:17.151Z,17.89
2017-10-01T10:04:17.029Z,17.81
2017-10-01T10:05:17.052Z,17.79
2017-10-01T10:06:16.994Z,17.59
2017-10-01T10:07:17.088Z,17.95
2017-10-01T10:08:16.952Z,17.79
2017-10-01T10:09:16.990Z,17.67
2017-10-01T10:10:16.916Z,18.87
2017-10-01T10:11:17.003Z,20.61
2017-10-01T10:13:41.869Z,23.20
2017-10-01T10:22:21.266Z,24.60
2017-10-01T10:23:21.282Z,26.83
2017-10-01T10:24:21.259Z,24.44
2017-10-01T10:25:21.312Z,24.29
2017-10-01T10:26:21.220Z,23.77
2017-10-01T10:27:21.332Z,25.91
2017-10-01T10:28:21.206Z,26.46
2017-10-01T10:29:21.239Z,23.55
2017-10-01T10:30:21.183Z,24.01
2017-10-01T10:31:21.244Z,23.22
2017-10-01T10:32:21.158Z,23.34
2017-10-01T10:33:21.269Z,22.69
2017-10-01T10:34:21.131Z,23.15
2017-10-01T10:35:21.275Z,22.89
2017-10-01T10:36:21.103Z,22.25
2017-10-01T10:37:21.286Z,21.74
2017-10-01T10:38:21.092Z,21.16
2017-10-01T10:39:21.214Z,20.51
2017-10-01T10:40:21.065Z,21.56
2017-10-01T10:41:21.222Z,21.94
2017-10-01T10:42:21.032Z,20.51
2017-10-01T10:43:21.125Z,19.73
2017-10-01T10:44:20.994Z,18.91
2017-10-01T10:45:21.140Z,18.84
2017-10-01T10:46:20.963Z,19.38
2017-10-01T10:47:21.046Z,19.31
2017-10-01T10:48:20.929Z,19.23
2017-10-01T10:49:21.058Z,19.15
2017-10-01T10:50:20.900Z,19.10
2017-10-01T10:51:20.986Z,19.61
2017-10-01T10:52:20.879Z,20.08
2017-10-01T10:53:21.091Z,19.70
2017-10-01T10:54:20.894Z,19.78
2017-10-01T10:55:21.037Z,19.50
2017-10-01T10:56:20.816Z,19.91
2017-10-01T10:57:20.926Z,19.40
2017-10-01T10:58:20.778Z,19.72
2017-10-01T10:59:20.823Z,19.95
2017-10-01T11:00:20.740Z,20.74
2017-10-01T11:01:20.843Z,21.32
2017-10-01T11:02:20.710Z,20.39
2017-10-01T11:03:20.748Z,19.87
2017-10-01T11:04:20.682Z,19.55
2017-10-01T11:05:20.764Z,20.08
2017-10-01T11:06:20.648Z,20.10
2017-10-01T11:07:20.691Z,20.06
2017-10-01T11:08:20.637Z,20.31
2017-10-01T11:09:20.694Z,20.25
2017-10-01T11:10:20.595Z,20.13
2017-10-01T11:11:20.601Z,19.33
2017-10-01T11:12:20.675Z,19.17
2017-10-01T11:13:20.627Z,19.55
2017-10-01T11:14:20.535Z,19.57
2017-10-01T11:15:20.642Z,20.30
2017-10-01T11:16:20.515Z,20.51
2017-10-01T11:17:20.556Z,20.18
2017-10-01T11:18:20.477Z,20.28
2017-10-01T11:19:20.564Z,20.12
2017-10-01T11:20:20.443Z,20.42
2017-10-01T11:21:20.485Z,20.03
2017-10-01T11:22:20.410Z,20.47
2017-10-01T11:23:20.489Z,20.05
2017-10-01T11:24:20.384Z,20.02
2017-10-01T11:25:20.523Z,20.27
2017-10-01T11:26:20.364Z,19.87
2017-10-01T11:27:20.424Z,19.48
2017-10-01T11:28:20.332Z,19.58
2017-10-01T11:29:20.431Z,19.66
2017-10-01T11:30:20.293Z,19.47
2017-10-01T11:31:20.354Z,20.02
2017-10-01T11:32:20.278Z,19.58
2017-10-01T11:33:20.363Z,19.70
2017-10-01T11:34:20.233Z,19.73
2017-10-01T11:35:20.275Z,20.00
2017-10-01T11:36:20.213Z,19.78
2017-10-01T11:37:20.286Z,19.78
2017-10-01T11:38:20.180Z,19.43
2017-10-01T11:39:20.302Z,19.43
2017-10-01T11:40:20.143Z,19.31
2017-10-01T11:41:20.206Z,19.35
2017-10-01T11:42:20.117Z,19.15
2017-10-01T11:43:20.229Z,18.84
2017-10-01T11:44:20.081Z,18.99
2017-10-01T11:45:20.809Z,19.05
2017-10-01T11:46:20.054Z,18.87
2017-10-01T11:47:20.155Z,18.80
2017-10-01T11:48:20.011Z,18.97
2017-10-01T11:49:20.062Z,18.95
2017-10-01T11:50:19.987Z,19.06
2017-10-01T11:51:20.081Z,19.33
2017-10-01T11:52:19.953Z,19.20
2017-10-01T11:53:19.999Z,19.35
2017-10-01T11:54:19.915Z,19.24
2017-10-01T11:55:20.006Z,19.28
2017-10-01T11:56:19.873Z,19.80
2017-10-01T11:57:20.799Z,19.88
2017-10-01T11:58:19.843Z,19.42
2017-10-01T11:59:19.939Z,19.66
2017-10-01T12:00:19.820Z,19.36
2017-10-01T12:01:19.848Z,19.23
2017-10-01T12:02:19.796Z,19.02
2017-10-01T12:03:19.862Z,19.23
2017-10-01T12:04:19.758Z,19.18
2017-10-01T12:05:19.873Z,19.20
2017-10-01T12:06:19.747Z,19.61
2017-10-01T12:07:19.784Z,19.53
2017-10-01T12:08:19.691Z,19.54
2017-10-01T12:09:19.819Z,19.88
2017-10-01T12:10:19.671Z,19.58
2017-10-01T12:11:19.712Z,19.42
2017-10-01T12:12:19.646Z,19.39
2017-10-01T12:13:19.735Z,19.39
2017-10-01T12:14:19.601Z,19.20
2017-10-01T12:15:20.016Z,19.10
2017-10-01T12:16:19.584Z,19.25
2017-10-01T12:17:19.658Z,19.54
2017-10-01T12:18:19.543Z,19.33
2017-10-01T12:19:19.575Z,19.40
2017-10-01T12:20:19.526Z,19.55
2017-10-01T12:21:19.584Z,19.53
2017-10-01T12:22:19.482Z,19.61
2017-10-01T12:23:19.600Z,19.43
2017-10-01T12:24:19.454Z,19.69
2017-10-01T12:25:19.501Z,19.76
2017-10-01T12:26:19.431Z,19.46
2017-10-01T12:27:19.525Z,19.15
2017-10-01T12:28:19.393Z,18.83
2017-10-01T12:29:19.443Z,18.82
2017-10-01T12:30:19.351Z,18.76
2017-10-01T12:31:19.442Z,18.91
2017-10-01T12:32:19.327Z,19.01
2017-10-01T12:34:19.290Z,18.95
2017-10-01T12:35:19.372Z,18.95
2017-10-01T12:36:19.258Z,18.94
2017-10-01T12:37:19.296Z,18.74
2017-10-01T12:38:19.227Z,18.97
2017-10-01T12:39:19.302Z,18.79
2017-10-01T12:40:19.200Z,18.82
2017-10-01T12:41:19.182Z,18.76
2017-10-01T12:42:19.223Z,18.77
2017-10-01T12:43:19.150Z,18.67
2017-10-01T12:44:19.235Z,18.67
2017-10-01T12:45:19.113Z,18.76
2017-10-01T12:46:19.147Z,18.77
2017-10-01T12:47:19.081Z,18.68
2017-10-01T12:48:19.067Z,18.80
2017-10-01T12:49:19.176Z,18.95
2017-10-01T12:50:19.027Z,18.91
2017-10-01T12:51:19.161Z,18.62
2017-10-01T12:52:19.003Z,18.47
2017-10-01T12:53:19.314Z,18.62
2017-10-01T12:54:18.965Z,18.83
2017-10-01T12:55:19.083Z,18.90
2017-10-01T12:56:18.929Z,18.99
2017-10-01T12:57:18.912Z,19.01
2017-10-01T12:58:19.101Z,19.02
2017-10-01T12:59:18.886Z,19.21
2017-10-01T13:00:19.012Z,19.08
2017-10-01T13:01:18.854Z,19.10
2017-10-01T13:02:19.032Z,18.83
2017-10-01T13:03:18.835Z,18.83
2017-10-01T13:04:18.927Z,18.65
2017-10-01T13:05:18.799Z,18.84
2017-10-01T13:06:18.943Z,18.82
2017-10-01T13:07:18.755Z,18.90
2017-10-01T13:08:18.872Z,18.68
2017-10-01T13:09:18.727Z,18.46
2017-10-01T13:10:18.868Z,18.58
2017-10-01T13:11:18.690Z,18.52
2017-10-01T13:12:18.724Z,18.47
2017-10-01T13:13:18.663Z,18.50
2017-10-01T13:14:18.649Z,18.59
2017-10-01T13:15:18.632Z,18.65
2017-10-01T13:16:18.620Z,18.83